KBEH/BEH METAR and TAF weather

Enter ICAO airport designator
Station Type Date Time Source
KBEH METAR 2021/10/22 18:17 UTC NOAA

KBEH 221817Z AUTO 19006KT 10SM BKN025 OVC065 09/04 A3003 RMK AO2 T00940039


Station Type Date Time Source
KBEH Decoded METAR 2021/10/22 18:17 UTC NOAA

SOUTHWEST MICHIGAN REGIONAL, MI, United States (KBEH) 42-08N 86-25W 191M
Oct 22, 2021 - 02:17 PM EDT / 2021.10.22 1817 UTC
Wind: from the S (190 degrees) at 7 MPH (6 KT):0
Visibility: 10 mile(s):0
Sky conditions: overcast
Temperature: 48.9 F (9.4 C)
Dew Point: 39.0 F (3.9 C)
Relative Humidity: 68%
Pressure (altimeter): 30.03 in. Hg (1016 hPa)
ob: KBEH 221817Z AUTO 19006KT 10SM BKN025 OVC065 09/04 A3003 RMK AO2 T00940039
cycle: 18

Station Type Date Time Source
KBEH TAF UTC NOAA

Error!

Example: see airport list